Time;durP1;ratioP1;P1;durP2;ratioP2;P2;SDS_P1;SDS_P2;PMS_P1;PMS_P2;Temp;Humidity;BMP_temperature;BMP_pressure;BME280_temperature;BME280_humidity;BME280_pressure;Samples;Min_cycle;Max_cycle;Signal;HPM_P1;HPM_P2
2021/04/27 00:00:06;;;;;;;32.95;14.90;;;;;;;0.40;64.06;98045.70;1818773;79;21411;-74
2021/04/27 00:02:34;;;;;;;32.50;14.83;;;;;;;0.34;64.31;98038.55;1818730;78;21106;-73
2021/04/27 00:05:01;;;;;;;34.48;15.95;;;;;;;0.28;65.64;98040.77;1818679;79;21051;-73
2021/04/27 00:07:27;;;;;;;34.80;17.45;;;;;;;0.26;66.37;98043.64;1818716;79;21079;-73
2021/04/27 00:09:54;;;;;;;36.48;16.87;;;;;;;0.27;65.42;98037.80;1818718;79;21170;-73
2021/04/27 00:12:20;;;;;;;32.83;15.90;;;;;;;0.28;67.50;98036.25;1818704;79;21059;-73
2021/04/27 00:14:46;;;;;;;34.30;14.95;;;;;;;0.34;67.84;98027.08;1819131;78;22057;-74
2021/04/27 00:17:12;;;;;;;43.87;19.87;;;;;;;0.39;64.51;98036.59;1819233;78;21439;-74
2021/04/27 00:19:38;;;;;;;38.53;19.73;;;;;;;0.42;64.44;98035.64;1819350;78;21496;-73
2021/04/27 00:22:05;;;;;;;35.83;18.15;;;;;;;0.51;66.30;98030.38;1793947;78;21090;-74
2021/04/27 00:24:31;;;;;;;34.25;16.93;;;;;;;0.58;67.50;98019.64;1819376;78;21425;-74
2021/04/27 00:26:59;;;;;;;34.78;16.90;;;;;;;0.60;67.16;98020.76;1819293;78;21920;-73
2021/04/27 00:29:25;;;;;;;37.15;16.85;;;;;;;0.55;66.42;98015.57;1819199;78;21118;-73
2021/04/27 00:31:51;;;;;;;37.50;19.10;;;;;;;0.46;67.82;98016.86;1819283;78;21015;-73
2021/04/27 00:34:17;;;;;;;40.08;16.82;;;;;;;0.40;68.39;98027.56;1793991;78;21095;-73
2021/04/27 00:36:43;;;;;;;37.65;18.15;;;;;;;0.39;65.44;98021.41;1794146;78;21137;-73
2021/04/27 00:39:10;;;;;;;41.98;19.52;;;;;;;0.35;64.46;98015.41;1819267;78;21956;-73
2021/04/27 00:41:36;;;;;;;42.43;22.10;;;;;;;0.29;64.43;98019.73;1819278;78;21106;-73
2021/04/27 00:44:02;;;;;;;40.30;21.30;;;;;;;0.30;65.14;98017.89;1819226;78;21043;-74
2021/04/27 00:46:29;;;;;;;42.70;19.30;;;;;;;0.31;66.84;98021.66;1819256;78;21019;-73
2021/04/27 00:48:55;;;;;;;46.48;21.33;;;;;;;0.39;64.54;98017.93;1819268;78;21070;-73
2021/04/27 00:51:21;;;;;;;39.18;17.45;;;;;;;0.38;64.24;98010.45;1819253;78;21172;-73
2021/04/27 00:53:49;;;;;;;43.95;17.27;;;;;;;0.39;64.30;98007.27;1819156;78;21019;-73
2021/04/27 00:56:15;;;;;;;33.78;18.30;;;;;;;0.33;64.71;97999.60;1819275;78;21078;-73
2021/04/27 00:58:41;;;;;;;39.83;17.82;;;;;;;0.33;64.55;97999.60;1819336;78;21428;-73
2021/04/27 01:01:11;;;;;;;38.50;16.10;;;;;;;0.40;67.27;97996.91;1819258;78;21416;-74
2021/04/27 01:03:35;;;;;;;36.70;17.67;;;;;;;0.48;67.37;97993.46;1819183;78;21390;-73
2021/04/27 01:06:01;;;;;;;32.75;14.58;;;;;;;0.54;68.06;97999.79;1819158;78;21186;-73
2021/04/27 01:08:50;;;;;;;35.75;15.53;;;;;;;0.63;65.53;97991.01;1819233;78;21090;-73
2021/04/27 01:11:29;;;;;;;;;;;;;;;0.62;65.47;97993.38;1821961;78;21102;-72
2021/04/27 01:14:10;;;;;;;35.38;15.55;;;;;;;0.59;66.36;97984.46;1819105;77;20210;-73
2021/04/27 01:16:41;;;;;;;39.13;16.35;;;;;;;0.58;64.45;97992.98;1818698;78;21111;-74
2021/04/27 01:19:09;;;;;;;37.15;16.23;;;;;;;0.51;66.18;97990.38;1818439;79;21011;-74
2021/04/27 01:21:35;;;;;;;43.98;17.07;;;;;;;0.54;65.60;97986.45;1818640;78;21122;-73
2021/04/27 01:24:24;;;;;;;34.23;15.08;;;;;;;0.54;66.90;97991.79;1789126;79;21111;-73
2021/04/27 01:26:55;;;;;;;37.17;16.30;;;;;;;0.59;65.99;97984.46;1809230;79;21031;-74
2021/04/27 01:29:26;;;;;;;36.00;18.35;;;;;;;0.62;65.03;97982.71;1818693;78;21160;-72
2021/04/27 01:31:51;;;;;;;32.48;15.38;;;;;;;0.54;68.45;97983.27;1818472;79;21043;-74
2021/04/27 01:34:23;;;;;;;33.98;14.68;;;;;;;0.58;66.73;97985.50;1818653;79;21095;-74
2021/04/27 01:36:50;;;;;;;33.08;15.95;;;;;;;0.57;65.47;97987.34;1817486;79;21412;-74
2021/04/27 01:39:17;;;;;;;37.93;17.07;;;;;;;0.55;64.70;97988.09;1818641;78;21102;-74
2021/04/27 01:41:43;;;;;;;31.60;16.45;;;;;;;0.52;64.66;97989.86;1818712;78;22028;-74
2021/04/27 01:44:09;;;;;;;32.93;16.50;;;;;;;0.48;64.83;97984.13;1818567;78;21492;-74
2021/04/27 01:46:35;;;;;;;30.85;14.93;;;;;;;0.47;64.18;97983.02;1789053;79;21121;-74
2021/04/27 01:49:02;;;;;;;29.63;14.80;;;;;;;0.44;64.50;97986.13;1789130;79;21031;-74
2021/04/27 01:51:28;;;;;;;30.48;14.43;;;;;;;0.46;64.82;97986.20;1818708;78;21000;-74
2021/04/27 01:53:54;;;;;;;32.23;14.43;;;;;;;0.46;65.88;97988.05;1818624;78;21178;-74
2021/04/27 01:56:21;;;;;;;32.50;14.43;;;;;;;0.46;65.91;97991.53;1818693;78;21083;-74
2021/04/27 01:58:48;;;;;;;29.67;16.25;;;;;;;0.46;66.86;97985.38;1818635;78;21102;-74
2021/04/27 02:01:15;;;;;;;38.45;16.90;;;;;;;0.49;65.79;97984.42;1818592;78;21090;-74
2021/04/27 02:03:44;;;;;;;37.55;17.12;;;;;;;0.47;64.54;97989.68;1818620;78;21134;-74
2021/04/27 02:06:10;;;;;;;32.70;17.25;;;;;;;0.41;67.83;97990.53;1818461;79;21308;-74
2021/04/27 02:08:38;;;;;;;40.33;18.70;;;;;;;0.42;66.00;97981.50;1788454;79;39995;-74
2021/04/27 02:11:04;;;;;;;39.13;16.73;;;;;;;0.42;65.91;97982.83;1818716;79;21031;-74
2021/04/27 02:13:31;;;;;;;33.18;15.55;;;;;;;0.41;65.40;97976.69;1818564;78;21158;-74
2021/04/27 02:15:57;;;;;;;39.30;17.98;;;;;;;0.37;65.24;97982.68;1819232;78;21499;-74
2021/04/27 02:18:55;;;;;;;34.80;18.05;;;;;;;0.39;65.87;97973.95;1819310;78;21581;-74
2021/04/27 02:21:21;;;;;;;40.20;20.02;;;;;;;0.41;67.61;97981.20;1819284;78;21082;-74
2021/04/27 02:23:47;;;;;;;48.05;18.05;;;;;;;0.41;67.53;97982.02;1819211;78;21126;-73
2021/04/27 02:26:14;;;;;;;50.70;21.37;;;;;;;0.40;66.67;97974.24;1819323;78;21157;-73
2021/04/27 02:28:41;;;;;;;45.00;23.92;;;;;;;0.35;66.49;97974.91;1819242;78;21503;-73
2021/04/27 02:31:08;;;;;;;43.02;20.77;;;;;;;0.33;67.75;97972.95;1819266;78;22140;-74
2021/04/27 02:33:34;;;;;;;40.23;18.67;;;;;;;0.39;66.31;97978.76;1819272;78;21157;-73
2021/04/27 02:36:01;;;;;;;40.03;19.00;;;;;;;0.32;66.71;97975.83;1819262;78;21170;-73
2021/04/27 02:38:27;;;;;;;39.05;19.07;;;;;;;0.24;69.63;97975.57;1819252;78;21559;-73
2021/04/27 02:40:56;;;;;;;34.35;17.60;;;;;;;0.20;66.50;97976.53;1819240;78;21091;-73
2021/04/27 02:43:23;;;;;;;29.98;15.45;;;;;;;0.10;69.28;97973.52;1819331;78;22088;-73
2021/04/27 02:45:49;;;;;;;29.60;14.23;;;;;;;0.08;67.83;97979.55;1819098;78;21122;-73
2021/04/27 02:48:22;;;;;;;29.63;14.73;;;;;;;0.03;69.74;97972.73;1819195;78;21163;-74
2021/04/27 02:50:51;;;;;;;28.83;14.40;;;;;;;0.05;67.78;97973.33;1818496;78;21106;-73
2021/04/27 02:53:18;;;;;;;28.10;16.90;;;;;;;-0.03;69.34;97970.91;1819232;78;21118;-73
2021/04/27 02:55:44;;;;;;;32.10;13.30;;;;;;;-0.09;69.81;97973.08;1793818;78;22082;-73
2021/04/27 02:58:10;;;;;;;33.78;14.07;;;;;;;-0.17;71.72;97970.17;1819132;78;21165;-73
2021/04/27 03:00:36;;;;;;;32.30;15.90;;;;;;;-0.20;71.91;97969.25;1819236;78;21083;-73
2021/04/27 03:03:05;;;;;;;36.70;15.67;;;;;;;-0.20;71.66;97976.42;1819411;78;21122;-73
2021/04/27 03:05:31;;;;;;;29.60;14.70;;;;;;;-0.22;71.24;97974.50;1794187;78;21851;-73
2021/04/27 03:07:58;;;;;;;30.65;14.65;;;;;;;-0.21;68.78;97976.94;1819179;78;21234;-73
2021/04/27 03:10:24;;;;;;;40.85;17.55;;;;;;;-0.26;67.69;97981.25;1819192;78;21504;-73
2021/04/27 03:12:50;;;;;;;34.30;16.32;;;;;;;-0.32;68.09;97985.60;1819346;78;21031;-73
2021/04/27 03:15:17;;;;;;;44.70;16.73;;;;;;;-0.35;68.09;97987.33;1819207;77;21138;-73
2021/04/27 03:17:43;;;;;;;36.53;16.10;;;;;;;-0.38;67.85;97980.59;1819459;78;21531;-73
2021/04/27 03:20:11;;;;;;;33.42;15.72;;;;;;;-0.41;67.77;97974.88;1819273;78;21413;-73
2021/04/27 03:22:37;;;;;;;41.23;15.32;;;;;;;-0.44;68.30;97977.95;1794294;78;21111;-73
2021/04/27 03:25:04;;;;;;;29.98;15.45;;;;;;;-0.47;67.50;97975.72;1819383;78;21118;-73
2021/04/27 03:27:31;;;;;;;62.53;26.77;;;;;;;-0.50;67.29;97982.80;1819318;78;21043;-73
2021/04/27 03:29:58;;;;;;;47.90;21.90;;;;;;;-0.59;70.20;97979.55;1819277;78;21094;-73
2021/04/27 03:32:25;;;;;;;52.40;23.07;;;;;;;-0.60;70.13;97981.87;1819312;78;21184;-73
2021/04/27 03:34:51;;;;;;;29.95;16.12;;;;;;;-0.61;69.07;97986.91;1819276;78;21023;-73
2021/04/27 03:37:18;;;;;;;36.75;16.42;;;;;;;-0.62;71.39;97980.77;1819334;78;21416;-73
2021/04/27 03:39:44;;;;;;;43.35;19.80;;;;;;;-0.64;70.52;97986.00;1819377;78;21126;-73
2021/04/27 03:42:10;;;;;;;33.95;17.50;;;;;;;-0.62;71.49;97992.74;1794131;78;21007;-73
2021/04/27 03:44:37;;;;;;;40.45;17.67;;;;;;;-0.61;71.50;97985.06;1819452;78;21288;-73
2021/04/27 03:47:04;;;;;;;108.42;47.23;;;;;;;-0.59;71.86;97980.88;1819224;78;21177;-73
2021/04/27 03:49:30;;;;;;;101.05;49.03;;;;;;;-0.58;71.32;97985.17;1819379;78;21015;-73
2021/04/27 03:51:56;;;;;;;145.77;66.62;;;;;;;-0.59;69.80;97984.36;1819319;78;21090;-73
2021/04/27 03:54:23;;;;;;;73.67;39.42;;;;;;;-0.61;70.79;97987.72;1794182;78;21158;-73
2021/04/27 03:56:49;;;;;;;36.83;17.10;;;;;;;-0.60;70.56;97989.87;1819216;78;22143;-73
2021/04/27 03:59:16;;;;;;;32.20;13.75;;;;;;;-0.61;69.88;97989.05;1819228;78;21174;-73
2021/04/27 04:01:42;;;;;;;40.88;17.23;;;;;;;-0.63;69.49;97992.44;1819325;78;21479;-73
2021/04/27 04:04:08;;;;;;;33.10;15.05;;;;;;;-0.63;69.79;97987.63;1819375;78;21571;-73
2021/04/27 04:06:35;;;;;;;41.90;15.55;;;;;;;-0.59;70.15;97992.86;1819305;78;21118;-73
2021/04/27 04:09:05;;;;;;;33.42;13.05;;;;;;;-0.53;70.74;97992.52;1794226;78;21291;-73
2021/04/27 04:11:34;;;;;;;32.83;16.80;;;;;;;-0.49;69.14;97992.42;1819188;78;21046;-73
2021/04/27 04:14:01;;;;;;;31.95;16.67;;;;;;;-0.48;70.82;97995.38;1819205;77;21079;-73
2021/04/27 04:16:27;;;;;;;35.30;18.12;;;;;;;-0.42;71.44;97992.70;1819300;78;21496;-73
2021/04/27 04:18:53;;;;;;;32.75;15.98;;;;;;;-0.29;70.15;97989.16;1819399;78;21165;-73
2021/04/27 04:21:20;;;;;;;33.30;14.20;;;;;;;-0.19;70.87;97991.38;1819300;78;21226;-73
2021/04/27 04:23:46;;;;;;;32.08;14.07;;;;;;;-0.10;69.78;97994.09;1793976;78;21146;-73
2021/04/27 04:26:13;;;;;;;32.30;16.15;;;;;;;-0.06;69.95;97992.66;1819328;78;21520;-73
2021/04/27 04:28:39;;;;;;;32.63;16.23;;;;;;;0.03;69.67;97992.72;1819278;78;21129;-73
2021/04/27 04:31:06;;;;;;;31.93;17.85;;;;;;;0.10;68.36;97995.35;1819269;78;21043;-73
2021/04/27 04:33:32;;;;;;;37.90;21.35;;;;;;;0.10;68.47;98000.16;1819377;78;21216;-73
2021/04/27 04:35:58;;;;;;;37.83;21.23;;;;;;;0.16;68.96;98001.95;1819225;78;21284;-73
2021/04/27 04:38:25;;;;;;;37.85;20.17;;;;;;;0.24;69.31;98000.38;1819371;78;21138;-73
2021/04/27 04:40:51;;;;;;;43.40;21.97;;;;;;;0.41;68.55;97996.68;1819222;78;21023;-73
2021/04/27 04:43:17;;;;;;;39.03;19.90;;;;;;;0.48;68.58;98001.98;1819386;78;21538;-74
2021/04/27 04:45:44;;;;;;;46.58;18.52;;;;;;;0.58;68.13;98008.98;1794202;78;22172;-73
2021/04/27 04:48:10;;;;;;;41.00;23.15;;;;;;;0.68;67.63;98008.49;1819195;78;21150;-74
2021/04/27 04:50:37;;;;;;;31.52;15.80;;;;;;;0.74;67.17;98012.97;1819212;78;21137;-73
2021/04/27 04:53:03;;;;;;;38.25;16.95;;;;;;;0.71;66.91;98010.23;1819278;78;21157;-73
2021/04/27 04:55:30;;;;;;;28.83;15.03;;;;;;;0.70;68.07;98009.12;1819302;78;21086;-74
2021/04/27 04:57:56;;;;;;;32.03;13.53;;;;;;;0.80;68.06;98014.78;1819261;78;21171;-74
2021/04/27 05:00:22;;;;;;;30.50;15.83;;;;;;;0.90;67.46;98016.95;1819190;78;21054;-73
2021/04/27 05:02:49;;;;;;;29.80;15.13;;;;;;;0.98;67.30;98015.35;1819198;78;21416;-74
2021/04/27 05:05:15;;;;;;;22.55;11.78;;;;;;;1.11;66.94;98013.89;1819186;78;21091;-74
2021/04/27 05:07:46;;;;;;;29.98;15.55;;;;;;;1.22;66.21;98008.38;1819230;78;21059;-73
2021/04/27 05:10:14;;;;;;;28.02;15.63;;;;;;;1.29;65.61;98010.47;1819350;78;21973;-73
2021/04/27 05:12:40;;;;;;;27.80;15.03;;;;;;;1.36;65.58;98007.19;1793935;78;21067;-73
2021/04/27 05:15:07;;;;;;;28.80;16.07;;;;;;;1.42;65.29;98008.98;1818941;78;21098;-74
2021/04/27 05:17:33;;;;;;;26.90;14.38;;;;;;;1.60;65.58;98013.52;1818747;78;21554;-74
2021/04/27 05:20:00;;;;;;;30.37;13.80;;;;;;;1.79;65.10;98017.00;1818684;78;21019;-73
2021/04/27 05:22:27;;;;;;;33.13;16.93;;;;;;;1.97;64.24;98020.50;1818609;79;21234;-73
2021/04/27 05:24:54;;;;;;;27.55;13.58;;;;;;;2.11;64.33;98017.64;1818639;79;21133;-74
2021/04/27 05:27:20;;;;;;;36.33;16.45;;;;;;;2.33;63.38;98016.64;1818747;78;21087;-73
2021/04/27 05:29:46;;;;;;;37.73;17.37;;;;;;;2.33;62.90;98014.78;1818696;78;21141;-73
2021/04/27 05:32:13;;;;;;;30.57;14.73;;;;;;;2.40;63.27;98019.53;1818674;78;21138;-73
2021/04/27 05:34:39;;;;;;;33.55;17.67;;;;;;;2.57;62.86;98019.70;1818614;79;21496;-74
2021/04/27 05:37:07;;;;;;;27.70;13.30;;;;;;;2.76;62.29;98023.93;1818847;78;21111;-74
2021/04/27 05:39:33;;;;;;;29.18;13.70;;;;;;;2.92;61.87;98024.31;1818715;78;21186;-74
2021/04/27 05:41:59;;;;;;;38.23;18.82;;;;;;;2.90;61.10;98027.20;1818684;79;21094;-74
2021/04/27 05:44:26;;;;;;;31.70;17.00;;;;;;;2.99;60.32;98027.67;1818651;79;21166;-73
2021/04/27 05:46:52;;;;;;;37.73;17.30;;;;;;;3.10;59.32;98026.37;1818707;78;22043;-74
2021/04/27 05:49:18;;;;;;;35.00;17.95;;;;;;;3.27;60.02;98031.05;1818675;79;21538;-74
2021/04/27 05:51:44;;;;;;;34.40;19.52;;;;;;;3.43;59.95;98027.67;1818703;78;21531;-74
2021/04/27 05:54:11;;;;;;;42.73;20.50;;;;;;;3.51;58.75;98025.17;1818638;78;21611;-74
2021/04/27 05:56:37;;;;;;;38.17;19.00;;;;;;;3.63;57.86;98032.66;1818743;79;21066;-74
2021/04/27 05:59:03;;;;;;;37.63;18.45;;;;;;;3.74;58.51;98032.34;1789171;79;21179;-74
2021/04/27 06:01:30;;;;;;;35.55;19.25;;;;;;;3.86;59.02;98032.64;1818531;79;21047;-73
2021/04/27 06:03:56;;;;;;;34.60;19.73;;;;;;;4.00;58.11;98033.70;1818660;79;21153;-74
2021/04/27 06:06:22;;;;;;;38.38;20.45;;;;;;;4.10;56.65;98035.24;1818680;79;21092;-74
2021/04/27 06:08:49;;;;;;;34.50;17.37;;;;;;;4.12;55.29;98028.61;1818719;78;21166;-74
2021/04/27 06:11:15;;;;;;;29.65;15.60;;;;;;;4.23;55.07;98025.06;1818560;78;21286;-74
2021/04/27 06:13:41;;;;;;;27.40;15.68;;;;;;;4.42;56.77;98025.69;1818581;79;21162;-74
2021/04/27 06:16:08;;;;;;;35.05;17.95;;;;;;;4.61;56.21;98026.83;1818854;78;21036;-73
2021/04/27 06:18:34;;;;;;;43.52;18.32;;;;;;;4.81;56.50;98023.18;1819330;78;21149;-73
2021/04/27 06:21:01;;;;;;;28.83;15.55;;;;;;;5.01;56.02;98028.07;1819266;78;21208;-73
2021/04/27 06:23:27;;;;;;;21.45;11.38;;;;;;;5.11;56.20;98022.86;1819252;78;21172;-73
2021/04/27 06:25:54;;;;;;;21.73;11.90;;;;;;;5.19;52.45;98029.17;1819110;78;21137;-73
2021/04/27 06:28:20;;;;;;;18.27;10.60;;;;;;;5.36;53.59;98034.53;1819207;78;21122;-73
2021/04/27 06:30:47;;;;;;;16.93;9.10;;;;;;;5.53;53.97;98027.80;1819254;78;21106;-73
2021/04/27 06:33:13;;;;;;;20.17;9.90;;;;;;;5.83;54.26;98022.86;1819240;78;21173;-73
2021/04/27 06:35:39;;;;;;;17.73;9.55;;;;;;;5.90;49.00;98028.06;1794084;78;21235;-73
2021/04/27 06:38:06;;;;;;;16.60;7.90;;;;;;;5.86;48.21;98033.11;1819297;78;21106;-74
2021/04/27 06:40:32;;;;;;;19.20;7.62;;;;;;;6.11;49.94;98033.19;1794005;78;21034;-73
2021/04/27 06:42:59;;;;;;;15.88;8.95;;;;;;;6.46;48.88;98031.44;1819123;78;21157;-74
2021/04/27 06:45:25;;;;;;;12.95;7.95;;;;;;;6.60;42.69;98027.30;1819440;78;21127;-74
2021/04/27 06:47:53;;;;;;;17.23;8.15;;;;;;;6.86;46.46;98029.70;1794459;78;21171;-75
2021/04/27 06:50:19;;;;;;;25.95;8.55;;;;;;;7.03;43.58;98030.93;1819299;78;21162;-74
2021/04/27 06:52:45;;;;;;;18.40;7.78;;;;;;;7.31;47.38;98025.76;1794262;78;21114;-74
2021/04/27 06:55:12;;;;;;;15.90;8.08;;;;;;;7.27;42.73;98025.47;1819299;78;21153;-74
2021/04/27 06:57:39;;;;;;;16.75;9.00;;;;;;;7.46;44.18;98031.27;1794116;78;21162;-74
2021/04/27 07:00:07;;;;;;;11.93;7.67;;;;;;;7.44;46.44;98025.33;1819472;78;21257;-74
2021/04/27 07:02:33;;;;;;;35.75;8.90;;;;;;;7.66;44.58;98031.12;1819686;78;21122;-74
2021/04/27 07:04:59;;;;;;;20.55;11.33;;;;;;;7.66;44.58;98031.12;1819478;78;21137;-74
2021/04/27 07:07:25;;;;;;;20.55;10.48;;;;;;;8.29;43.87;98027.91;1819319;78;21098;-74
2021/04/27 07:09:52;;;;;;;20.15;10.03;;;;;;;8.89;44.45;98024.61;1819405;78;21146;-74
2021/04/27 07:12:18;;;;;;;16.50;9.60;;;;;;;9.47;43.65;98019.73;1819354;78;21180;-74
2021/04/27 07:14:44;;;;;;;20.35;9.58;;;;;;;10.52;41.17;98024.88;1819357;78;21166;-72
2021/04/27 07:17:10;;;;;;;17.85;11.00;;;;;;;10.52;41.17;98024.88;1789020;79;21031;-72
2021/04/27 07:19:36;;;;;;;16.95;10.88;;;;;;;10.94;36.88;98027.06;1814048;78;21564;-72
2021/04/27 07:22:03;;;;;;;17.62;10.78;;;;;;;11.23;37.59;98025.75;1813918;78;21133;-72
2021/04/27 07:24:31;;;;;;;16.95;9.75;;;;;;;11.70;40.23;98026.95;1813874;79;21204;-72
2021/04/27 07:26:57;;;;;;;18.87;12.35;;;;;;;12.28;39.13;98024.98;1813839;78;21094;-72
2021/04/27 07:29:24;;;;;;;15.78;9.10;;;;;;;12.19;34.89;98019.94;1813962;79;21531;-72
2021/04/27 07:31:50;;;;;;;14.18;9.63;;;;;;;12.80;35.93;98018.32;1813900;79;21039;-72
2021/04/27 07:34:16;;;;;;;19.35;10.55;;;;;;;13.17;34.36;98018.87;1814085;78;21554;-72
2021/04/27 07:36:43;;;;;;;17.05;9.60;;;;;;;12.87;31.12;98017.41;1814002;78;21339;-72
2021/04/27 07:39:10;;;;;;;13.68;9.08;;;;;;;13.22;34.91;98019.61;1813881;79;21155;-72
2021/04/27 07:41:36;;;;;;;52.95;11.65;;;;;;;13.65;33.86;98011.83;1813923;79;21123;-72
2021/04/27 07:44:03;;;;;;;18.92;10.80;;;;;;;13.86;32.34;98014.45;1814002;78;21146;-72
2021/04/27 07:46:30;;;;;;;14.70;8.55;;;;;;;14.35;29.88;98011.55;1813860;79;21032;-72
2021/04/27 07:48:56;;;;;;;12.40;8.25;;;;;;;13.07;29.33;98014.92;1813986;78;22156;-72
2021/04/27 07:51:22;;;;;;;13.78;7.95;;;;;;;13.33;31.89;98015.36;1813951;79;21118;-72
2021/04/27 07:53:48;;;;;;;11.50;6.92;;;;;;;14.22;31.60;98013.20;1814006;79;21118;-72
2021/04/27 07:56:14;;;;;;;14.78;8.08;;;;;;;14.64;29.47;98014.80;1813893;78;21095;-73
2021/04/27 07:58:41;;;;;;;16.02;6.83;;;;;;;14.85;27.39;98015.70;1813977;79;21548;-73
2021/04/27 08:01:07;;;;;;;14.95;7.67;;;;;;;15.33;26.50;98009.11;1813888;79;21194;-73
2021/04/27 08:03:33;;;;;;;15.60;8.48;;;;;;;15.83;29.00;98006.23;1813807;79;21207;-74
2021/04/27 08:05:59;;;;;;;11.80;7.40;;;;;;;16.63;28.33;98005.59;1813837;79;21203;-74
2021/04/27 08:08:25;;;;;;;11.20;6.58;;;;;;;16.98;25.91;98002.92;1814005;78;21142;-74
2021/04/27 08:10:52;;;;;;;11.68;6.47;;;;;;;17.40;27.87;97994.45;1813997;78;21159;-73
2021/04/27 08:13:18;;;;;;;9.73;6.28;;;;;;;16.13;21.59;98001.84;1813909;79;22087;-73
2021/04/27 08:15:44;;;;;;;10.80;7.10;;;;;;;17.45;25.48;97993.72;1814785;77;21420;-74
2021/04/27 08:18:10;;;;;;;13.32;7.85;;;;;;;18.15;23.44;97998.45;1818792;78;21097;-73
2021/04/27 08:20:37;;;;;;;16.62;6.83;;;;;;;18.20;22.26;97996.07;1818809;79;21578;-74
2021/04/27 08:23:03;;;;;;;9.50;5.22;;;;;;;18.77;24.29;97993.67;1818822;79;21613;-75
2021/04/27 08:25:31;;;;;;;9.25;5.58;;;;;;;19.14;24.38;97994.70;1789269;79;21534;-73
2021/04/27 08:27:57;;;;;;;10.72;6.42;;;;;;;18.97;21.59;97994.84;1818918;78;21093;-74
2021/04/27 08:30:24;;;;;;;9.38;7.20;;;;;;;19.83;23.67;97989.69;1818893;79;21146;-74
2021/04/27 08:32:52;;;;;;;18.42;6.53;;;;;;;19.75;21.23;97995.52;1789033;79;21043;-74
2021/04/27 08:35:19;;;;;;;10.30;5.85;;;;;;;19.61;19.70;97993.06;1818749;79;21067;-75
2021/04/27 08:37:45;;;;;;;10.72;7.12;;;;;;;17.23;19.33;97997.20;1818667;78;21082;-75
2021/04/27 08:40:13;;;;;;;10.60;6.22;;;;;;;17.68;18.63;97997.03;1819005;78;21138;-74
2021/04/27 08:42:39;;;;;;;8.30;5.33;;;;;;;17.71;20.31;97999.74;1820263;79;21142;-74
2021/04/27 08:45:11;;;;;;;9.50;6.40;;;;;;;18.36;20.07;97990.27;1819889;78;21134;-74
2021/04/27 08:47:37;;;;;;;7.05;4.72;;;;;;;18.13;19.04;97997.98;1819657;79;21075;-74
2021/04/27 08:50:06;;;;;;;9.08;5.67;;;;;;;19.32;20.82;97983.56;1819977;78;22043;-74
2021/04/27 08:52:32;;;;;;;9.33;5.37;;;;;;;19.42;18.92;97988.05;1819658;78;21023;-73
2021/04/27 08:54:59;;;;;;;11.25;7.42;;;;;;;19.37;19.23;97977.27;1820013;78;21134;-73
2021/04/27 08:57:26;;;;;;;8.15;5.87;;;;;;;20.36;19.27;97987.32;1819736;78;21086;-73
2021/04/27 08:59:52;;;;;;;7.08;5.28;;;;;;;20.24;17.93;97985.93;1819477;78;21117;-74
2021/04/27 09:02:30;;;;;;;10.28;5.15;;;;;;;19.75;17.45;97978.22;1818772;78;21139;-74
2021/04/27 09:04:56;;;;;;;8.43;4.93;;;;;;;19.66;18.31;97975.00;1818582;79;21123;-73
2021/04/27 09:07:24;;;;;;;12.10;5.28;;;;;;;19.67;17.80;97974.42;1818726;79;21022;-73
2021/04/27 09:09:58;;;;;;;9.10;5.95;;;;;;;19.33;19.49;97976.92;1789167;79;21084;-73
2021/04/27 09:12:31;;;;;;;13.88;7.28;;;;;;;19.80;17.71;97972.48;1818680;78;21090;-73
2021/04/27 09:14:59;;;;;;;13.53;11.48;;;;;;;19.49;18.42;97964.16;1818860;79;21242;-74
2021/04/27 09:17:27;;;;;;;37.50;10.18;;;;;;;20.67;17.55;97974.34;1819090;78;21137;-74
2021/04/27 09:19:55;;;;;;;14.03;8.10;;;;;;;21.64;17.26;97970.48;1819387;78;21137;-74
2021/04/27 09:22:34;;;;;;;7.72;4.87;;;;;;;22.00;15.61;97975.53;1819289;78;21032;-74
2021/04/27 09:25:06;;;;;;;37.48;9.58;;;;;;;23.38;16.29;97963.28;1819302;78;21024;-74
2021/04/27 09:27:45;;;;;;;16.90;5.53;;;;;;;23.43;14.87;97963.00;1794117;78;21528;-73
2021/04/27 09:30:20;;;;;;;15.55;5.40;;;;;;;23.91;14.91;97956.58;1794264;78;21459;-74
2021/04/27 09:33:00;;;;;;;8.73;5.80;;;;;;;22.91;13.22;97956.61;1817849;78;21141;-74
2021/04/27 09:35:38;;;;;;;15.10;6.95;;;;;;;23.89;14.42;97945.09;1819258;78;21098;-73
2021/04/27 09:38:08;;;;;;;;;;;;;;;24.12;13.13;97947.85;1821966;78;21059;-75
2021/04/27 09:40:53;;;;;;;15.40;6.25;;;;;;;23.09;14.38;97953.63;1819232;78;21401;-74
2021/04/27 09:43:34;;;;;;;15.45;4.50;;;;;;;23.73;15.29;97954.09;1819264;78;21090;-74
2021/04/27 09:46:03;;;;;;;18.57;5.65;;;;;;;23.25;14.33;97952.18;1819321;78;21626;-73
2021/04/27 09:48:45;;;;;;;6.40;5.15;;;;;;;22.84;14.75;97948.13;1819307;78;21511;-74
2021/04/27 09:51:19;;;;;;;19.00;7.87;;;;;;;24.78;13.89;97942.32;1819281;78;21007;-76
2021/04/27 09:53:55;;;;;;;32.13;17.70;;;;;;;25.38;13.27;97927.64;1819235;78;21393;-76
2021/04/27 09:56:36;;;;;;;13.70;5.65;;;;;;;26.03;11.83;97933.47;1818204;78;21218;-74
2021/04/27 09:59:14;;;;;;;12.93;4.85;;;;;;;25.09;12.72;97920.98;1819313;78;21062;-74
2021/04/27 10:01:43;;;;;;;13.48;5.03;;;;;;;22.79;13.20;97930.67;1819344;78;21416;-74
2021/04/27 10:04:09;;;;;;;12.78;6.97;;;;;;;22.68;13.53;97931.61;1818965;78;21075;-73
2021/04/27 10:06:36;;;;;;;31.87;7.08;;;;;;;24.48;13.49;97933.41;1819213;78;21226;-73
2021/04/27 10:09:03;;;;;;;6.47;4.47;;;;;;;25.03;12.31;97932.39;1819223;78;21134;-73
2021/04/27 10:11:29;;;;;;;7.73;5.50;;;;;;;25.17;12.81;97929.59;1819412;78;21022;-73
2021/04/27 10:13:56;;;;;;;31.68;7.45;;;;;;;25.29;12.48;97921.01;1819343;78;22188;-73
2021/04/27 10:16:23;;;;;;;17.67;10.53;;;;;;;23.15;12.34;97928.67;1819118;77;21039;-73
2021/04/27 10:18:51;;;;;;;7.53;5.35;;;;;;;21.27;14.32;97922.19;1819562;78;21490;-73
2021/04/27 10:21:18;;;;;;;14.38;5.10;;;;;;;22.97;13.96;97920.61;1819085;78;21055;-74
2021/04/27 10:23:49;;;;;;;22.85;6.65;;;;;;;20.41;14.69;97922.98;1819299;78;21559;-74
2021/04/27 10:26:20;;;;;;;21.50;8.78;;;;;;;17.92;17.68;97916.22;1818766;78;21129;-74
2021/04/27 10:28:59;;;;;;;6.95;5.50;;;;;;;17.36;18.30;97914.08;1794806;78;21106;-74
2021/04/27 10:31:26;;;;;;;6.58;3.95;;;;;;;16.96;18.28;97906.66;1819152;78;21241;-74
2021/04/27 10:34:01;;;;;;;17.00;12.43;;;;;;;16.26;18.10;97911.28;1819426;78;21383;-73
2021/04/27 10:36:28;;;;;;;9.45;8.03;;;;;;;15.02;19.63;97904.53;1819180;78;21090;-74
2021/04/27 10:39:01;;;;;;;9.88;5.03;;;;;;;13.90;21.53;97910.58;1819223;78;21103;-74
2021/04/27 10:41:46;;;;;;;11.88;4.90;;;;;;;13.98;21.14;97906.34;1819003;78;21113;-73
2021/04/27 10:44:15;;;;;;;15.72;7.40;;;;;;;13.33;22.39;97903.78;1819229;78;21174;-73
2021/04/27 10:46:44;;;;;;;14.98;8.43;;;;;;;12.86;22.89;97901.59;1819325;78;21381;-74
2021/04/27 10:49:24;;;;;;;9.30;6.17;;;;;;;12.73;22.69;97900.97;1819158;78;21090;-74
2021/04/27 10:51:51;;;;;;;14.13;6.12;;;;;;;12.66;22.83;97887.23;1818853;78;21003;-74
2021/04/27 10:54:25;;;;;;;11.40;5.22;;;;;;;12.46;23.74;97891.59;1819273;78;21467;-73
2021/04/27 10:56:56;;;;;;;10.90;4.95;;;;;;;11.81;24.52;97888.16;1819046;78;22009;-73
2021/04/27 10:59:25;;;;;;;12.30;6.00;;;;;;;11.83;25.52;97886.50;1819258;78;21479;-73
2021/04/27 11:02:12;;;;;;;18.50;6.12;;;;;;;11.97;25.43;97876.55;1819220;78;21015;-72
2021/04/27 11:04:45;;;;;;;10.78;5.08;;;;;;;11.79;25.46;97878.62;1819152;78;21503;-73
2021/04/27 11:07:24;;;;;;;16.52;7.97;;;;;;;11.63;26.43;97885.38;1793945;78;21019;-73
2021/04/27 11:10:05;;;;;;;10.68;8.58;;;;;;;11.85;25.61;97868.81;1819333;78;22035;-72
2021/04/27 11:12:41;;;;;;;67.90;19.90;;;;;;;12.04;25.01;97867.47;1819144;78;21423;-73
2021/04/27 11:15:09;;;;;;;14.05;9.45;;;;;;;11.84;25.22;97863.68;1818833;78;21125;-72
2021/04/27 11:17:39;;;;;;;576.40;71.75;;;;;;;11.69;25.81;97865.19;1818689;77;21107;-72
2021/04/27 11:20:09;;;;;;;65.15;10.35;;;;;;;11.28;28.88;97867.84;1818650;79;21076;-72
2021/04/27 11:22:37;;;;;;;9.28;3.95;;;;;;;11.58;27.90;97873.46;1818495;78;21160;-72
2021/04/27 11:25:07;;;;;;;10.95;5.22;;;;;;;11.79;26.07;97865.06;1818527;79;21106;-72
2021/04/27 11:27:39;;;;;;;24.92;8.58;;;;;;;11.38;24.78;97868.83;1817754;79;21122;-72